Time;durP1;ratioP1;P1;durP2;ratioP2;P2;SDS_P1;SDS_P2;PMS_P1;PMS_P2;Temp;Humidity;BMP_temperature;BMP_pressure;BME280_temperature;BME280_humidity;BME280_pressure;Samples;Min_cycle;Max_cycle;Signal;HPM_P1;HPM_P2
2022/08/01 00:00:40;;;;;;;31.70;17.10;;;;;;;20.77;100.00;101172.75;5003044;28;20127;-75
2022/08/01 00:03:07;;;;;;;33.95;22.33;;;;;;;20.82;100.00;101172.16;5002480;28;20864;-75
2022/08/01 00:05:34;;;;;;;30.00;17.38;;;;;;;20.71;100.00;101174.56;5003687;28;20076;-75
2022/08/01 00:08:00;;;;;;;29.67;18.60;;;;;;;20.74;100.00;101180.06;5003156;28;20133;-73
2022/08/01 00:10:27;;;;;;;25.73;11.95;;;;;;;20.69;100.00;101179.88;5003169;28;20060;-74
2022/08/01 00:12:53;;;;;;;34.28;19.95;;;;;;;20.71;100.00;101178.16;5001775;28;20053;-75
2022/08/01 00:15:20;;;;;;;31.55;20.50;;;;;;;20.77;100.00;101175.56;5002886;28;20049;-74
2022/08/01 00:17:47;;;;;;;34.78;22.60;;;;;;;20.80;100.00;101163.38;5003439;28;20080;-75
2022/08/01 00:20:15;;;;;;;39.05;23.27;;;;;;;20.83;100.00;101168.91;5003151;28;21235;-74
2022/08/01 00:22:42;;;;;;;24.75;12.20;;;;;;;20.76;100.00;101176.81;4999872;28;20131;-74
2022/08/01 00:25:09;;;;;;;36.45;21.60;;;;;;;20.82;100.00;101175.75;5001524;28;20227;-74
2022/08/01 00:27:35;;;;;;;36.40;22.75;;;;;;;20.85;100.00;101172.03;4999744;28;20049;-74
2022/08/01 00:30:04;;;;;;;32.05;19.42;;;;;;;20.84;100.00;101183.72;5001362;28;20866;-75
2022/08/01 00:32:41;;;;;;;32.63;17.75;;;;;;;20.77;100.00;101181.19;5000371;28;20120;-74
2022/08/01 00:35:08;;;;;;;32.80;22.63;;;;;;;20.87;100.00;101174.38;4994595;28;20042;-75
2022/08/01 00:37:37;;;;;;;33.95;18.00;;;;;;;20.80;100.00;101174.66;4998062;28;20051;-75
2022/08/01 00:40:05;;;;;;;34.55;20.60;;;;;;;20.85;100.00;101188.13;4995334;28;20781;-75
2022/08/01 00:42:31;;;;;;;32.97;20.45;;;;;;;20.84;100.00;101175.28;5000368;28;20203;-73
2022/08/01 00:44:58;;;;;;;33.03;20.75;;;;;;;20.86;100.00;101181.25;4993285;28;20140;-74
2022/08/01 00:47:24;;;;;;;31.35;21.10;;;;;;;20.87;100.00;101180.81;5000583;28;20134;-75
2022/08/01 00:49:51;;;;;;;29.00;16.08;;;;;;;20.74;100.00;101182.88;5000307;28;20053;-74
2022/08/01 00:52:18;;;;;;;35.88;21.27;;;;;;;20.82;100.00;101178.56;5000357;28;20049;-74
2022/08/01 00:54:45;;;;;;;32.65;19.05;;;;;;;20.85;100.00;101174.06;5005709;28;20473;-74
2022/08/01 00:57:12;;;;;;;31.75;20.00;;;;;;;20.85;100.00;101171.25;5010107;28;20160;-75
2022/08/01 00:59:40;;;;;;;33.70;20.55;;;;;;;20.84;100.00;101180.91;5009568;28;20326;-74
2022/08/01 01:02:09;;;;;;;33.72;20.40;;;;;;;20.83;100.00;101176.53;5012115;28;20041;-74
2022/08/01 01:04:41;;;;;;;37.25;21.83;;;;;;;20.83;100.00;101179.34;5007110;28;20057;-74
2022/08/01 01:07:20;;;;;;;32.88;21.15;;;;;;;20.86;100.00;101168.00;5011863;28;20056;-75
2022/08/01 01:10:09;;;;;;;32.10;19.77;;;;;;;20.82;100.00;101166.53;5009574;28;20057;-75
2022/08/01 01:12:51;;;;;;;39.45;23.40;;;;;;;20.82;100.00;101170.13;5011017;28;20057;-75
2022/08/01 01:15:40;;;;;;;31.50;19.42;;;;;;;20.75;100.00;101167.56;5009553;28;20049;-75
2022/08/01 01:18:12;;;;;;;39.28;23.35;;;;;;;20.80;100.00;101163.38;5005531;28;20148;-75
2022/08/01 01:20:45;;;;;;;36.92;20.90;;;;;;;20.74;100.00;101168.03;5009483;28;20061;-75
2022/08/01 01:23:40;;;;;;;34.15;22.40;;;;;;;20.76;100.00;101165.56;5010564;28;20060;-77
2022/08/01 01:26:43;;;;;;;37.50;23.52;;;;;;;20.81;100.00;101162.94;5011195;28;20601;-75
2022/08/01 01:29:23;;;;;;;37.88;23.25;;;;;;;20.76;100.00;101169.16;5011273;28;20053;-75
2022/08/01 01:31:57;;;;;;;35.85;21.17;;;;;;;20.76;100.00;101165.56;5010886;28;20151;-75
2022/08/01 01:34:24;;;;;;;33.20;18.02;;;;;;;20.70;100.00;101162.53;5014230;28;20172;-75
2022/08/01 01:36:55;;;;;;;40.72;22.95;;;;;;;20.76;100.00;101168.38;5016194;28;20055;-76
2022/08/01 01:39:25;;;;;;;39.80;24.73;;;;;;;20.82;100.00;101172.16;5013890;28;20429;-75
2022/08/01 01:41:54;;;;;;;38.92;22.85;;;;;;;20.82;100.00;101174.97;5012565;28;20837;-75
2022/08/01 01:44:21;;;;;;;36.55;21.52;;;;;;;20.77;100.00;101175.56;5010549;28;20049;-75
2022/08/01 01:46:54;;;;;;;36.50;22.52;;;;;;;20.78;100.00;101177.91;5013489;28;20051;-74
2022/08/01 01:49:25;;;;;;;33.13;20.52;;;;;;;20.79;100.00;101175.91;5009889;28;20085;-74
2022/08/01 01:51:55;;;;;;;36.60;20.83;;;;;;;20.84;100.00;101180.91;5022153;28;20104;-74
2022/08/01 01:54:39;;;;;;;38.17;21.13;;;;;;;20.85;100.00;101182.50;5031548;28;20049;-75
2022/08/01 01:57:07;;;;;;;38.58;20.38;;;;;;;20.87;100.00;101186.44;5031498;28;20128;-74
2022/08/01 01:59:36;;;;;;;33.20;20.90;;;;;;;20.89;100.00;101186.75;5031857;28;20053;-74
2022/08/01 02:02:04;;;;;;;32.67;18.58;;;;;;;20.83;100.00;101187.78;5031681;28;20050;-74
2022/08/01 02:04:36;;;;;;;34.95;21.23;;;;;;;20.86;100.00;101190.50;5031271;28;20057;-74
2022/08/01 02:07:03;;;;;;;36.17;21.10;;;;;;;20.84;100.00;101181.72;5029357;28;20067;-74
2022/08/01 02:09:31;;;;;;;36.38;20.33;;;;;;;20.85;100.00;101186.09;5036881;28;20589;-74
2022/08/01 02:12:02;;;;;;;28.88;17.08;;;;;;;20.80;100.00;101181.06;5030885;28;20050;-74
2022/08/01 02:14:35;;;;;;;39.60;22.58;;;;;;;20.83;100.00;101182.16;5027954;28;20156;-74
2022/08/01 02:17:03;;;;;;;37.60;21.02;;;;;;;20.85;100.00;101176.88;5031465;28;20627;-72
2022/08/01 02:19:32;;;;;;;37.33;22.23;;;;;;;20.87;100.00;101185.63;5023485;28;20472;-75
2022/08/01 02:22:16;;;;;;;35.33;21.08;;;;;;;20.85;100.00;101188.13;5029148;28;20136;-74
2022/08/01 02:25:42;;;;;;;35.75;22.27;;;;;;;20.85;100.00;101183.28;5025649;28;20064;-72
2022/08/01 02:28:36;;;;;;;36.50;23.17;;;;;;;20.86;100.00;101181.25;5053194;28;20052;-74
2022/08/01 02:31:11;;;;;;;36.85;22.58;;;;;;;20.85;100.00;101180.47;5031548;28;20045;-73
2022/08/01 02:33:50;;;;;;;35.65;20.10;;;;;;;20.84;100.00;101181.72;5031144;28;20045;-74
2022/08/01 02:36:19;;;;;;;43.65;22.50;;;;;;;20.89;100.00;101180.34;5030381;28;20045;-73
2022/08/01 02:39:02;;;;;;;38.45;21.98;;;;;;;20.87;100.00;101186.44;5025342;28;20119;-75
2022/08/01 02:41:32;;;;;;;34.70;19.70;;;;;;;20.88;100.00;101185.19;5027489;28;20087;-74
2022/08/01 02:44:03;;;;;;;36.65;19.20;;;;;;;20.85;100.00;101182.50;5030109;28;20075;-74
2022/08/01 02:46:37;;;;;;;37.53;20.33;;;;;;;20.86;100.00;101178.44;5030478;28;20704;-75
2022/08/01 02:49:06;;;;;;;40.30;20.83;;;;;;;20.82;100.00;101180.59;5029831;28;20144;-74
2022/08/01 02:51:35;;;;;;;35.22;22.65;;;;;;;20.83;100.00;101185.78;5030183;28;20056;-74
2022/08/01 02:54:04;;;;;;;35.17;21.63;;;;;;;20.84;100.00;101183.72;5029622;28;20562;-74
2022/08/01 02:56:35;;;;;;;39.05;23.55;;;;;;;20.86;100.00;101179.25;5031002;28;20103;-75
2022/08/01 02:59:07;;;;;;;37.17;22.13;;;;;;;20.87;100.00;101171.56;5030026;28;20091;-74
2022/08/01 03:01:36;;;;;;;39.95;22.55;;;;;;;20.84;100.00;101169.66;5028824;28;20107;-74
2022/08/01 03:04:07;;;;;;;42.88;23.23;;;;;;;20.86;100.00;101170.81;5029944;28;20037;-73
2022/08/01 03:06:35;;;;;;;39.25;21.30;;;;;;;20.86;100.00;101172.81;5028734;28;20087;-74
2022/08/01 03:09:04;;;;;;;34.50;20.13;;;;;;;20.81;100.00;101176.19;5036029;28;20048;-74
2022/08/01 03:11:32;;;;;;;36.45;19.23;;;;;;;20.75;100.00;101183.69;5025876;28;20045;-75
2022/08/01 03:14:04;;;;;;;36.05;19.55;;;;;;;20.70;100.00;101176.59;5030087;28;20132;-74
2022/08/01 03:16:33;;;;;;;34.83;19.23;;;;;;;20.68;100.00;101178.31;5030028;28;20520;-74
2022/08/01 03:19:01;;;;;;;33.10;17.60;;;;;;;20.61;100.00;101184.19;5030073;28;20076;-74
2022/08/01 03:21:31;;;;;;;31.73;18.25;;;;;;;20.59;100.00;101181.81;5030044;28;20049;-73
2022/08/01 03:24:01;;;;;;;31.70;19.08;;;;;;;20.56;100.00;101188.34;5029985;28;20080;-74
2022/08/01 03:26:30;;;;;;;31.80;19.20;;;;;;;20.58;100.00;101185.09;5028804;28;20565;-73
2022/08/01 03:29:01;;;;;;;36.08;19.92;;;;;;;20.57;100.00;101191.94;5030251;28;20096;-76
2022/08/01 03:31:30;;;;;;;36.10;18.40;;;;;;;20.59;100.00;101192.28;5029330;28;20053;-73
2022/08/01 03:33:56;;;;;;;37.00;20.25;;;;;;;20.59;100.00;101192.28;5029787;28;20556;-73
2022/08/01 03:36:28;;;;;;;32.88;18.60;;;;;;;20.57;100.00;101194.72;5028695;28;20055;-73
2022/08/01 03:38:58;;;;;;;36.00;19.13;;;;;;;20.53;100.00;101200.50;5028615;28;20033;-73
2022/08/01 03:41:27;;;;;;;39.85;19.75;;;;;;;20.56;100.00;101204.41;5029233;28;20053;-73
2022/08/01 03:44:02;;;;;;;35.83;20.13;;;;;;;20.54;100.00;101192.81;5029435;28;20444;-74
2022/08/01 03:46:46;;;;;;;34.90;18.30;;;;;;;20.53;100.00;101202.50;5026593;28;20066;-71
2022/08/01 03:49:29;;;;;;;34.95;19.02;;;;;;;20.50;100.00;101211.84;5026567;28;20061;-73
2022/08/01 03:51:58;;;;;;;37.88;18.13;;;;;;;20.49;100.00;101201.84;5028419;28;20568;-73
2022/08/01 03:54:37;;;;;;;35.42;19.92;;;;;;;20.48;100.00;101208.72;5029898;28;20136;-73
2022/08/01 03:57:05;;;;;;;37.58;19.85;;;;;;;20.47;100.00;101210.75;5024218;28;20099;-74
2022/08/01 03:59:34;;;;;;;41.75;20.08;;;;;;;20.52;100.00;101204.56;5027723;28;20061;-73
2022/08/01 04:02:02;;;;;;;38.28;20.42;;;;;;;20.50;100.00;101207.03;5028424;28;20099;-72
2022/08/01 04:04:30;;;;;;;39.92;20.77;;;;;;;20.55;100.00;101214.88;5028704;28;20536;-74
2022/08/01 04:06:56;;;;;;;37.33;19.27;;;;;;;20.57;100.00;101205.97;5028885;28;20045;-72
2022/08/01 04:09:26;;;;;;;33.35;18.75;;;;;;;20.55;100.00;101214.09;5030863;28;20554;-75
2022/08/01 04:11:53;;;;;;;32.78;18.05;;;;;;;20.55;100.00;101206.44;5028616;28;20204;-73
2022/08/01 04:14:22;;;;;;;38.58;19.67;;;;;;;20.56;100.00;101201.59;5029295;28;20128;-74
2022/08/01 04:16:49;;;;;;;35.42;16.92;;;;;;;20.50;100.00;101206.22;5027925;28;20057;-74
2022/08/01 04:19:16;;;;;;;39.13;18.55;;;;;;;20.54;100.00;101204.06;5029377;28;20132;-74
2022/08/01 04:21:43;;;;;;;31.92;17.35;;;;;;;20.57;100.00;101211.59;5028543;28;20105;-73
2022/08/01 04:24:16;;;;;;;34.85;16.23;;;;;;;20.52;100.00;101204.56;5028136;28;20049;-73
2022/08/01 04:26:45;;;;;;;30.25;15.80;;;;;;;20.49;100.00;101211.09;5027287;28;20608;-73
2022/08/01 04:29:16;;;;;;;30.63;16.10;;;;;;;20.48;100.00;101205.91;5028384;28;20091;-74
2022/08/01 04:31:45;;;;;;;30.48;15.60;;;;;;;20.53;100.00;101217.38;5026858;28;20128;-71
2022/08/01 04:34:15;;;;;;;28.88;14.93;;;;;;;20.55;100.00;101225.34;5028355;28;20578;-74
2022/08/01 04:36:44;;;;;;;30.33;15.63;;;;;;;20.53;100.00;101220.19;5020353;28;20048;-74
2022/08/01 04:39:14;;;;;;;31.73;14.90;;;;;;;20.51;100.00;101222.63;5028252;28;20053;-73
2022/08/01 04:41:41;;;;;;;31.20;14.43;;;;;;;20.51;100.00;101224.69;5022244;28;20046;-74
2022/08/01 04:44:08;;;;;;;29.92;15.07;;;;;;;20.58;100.00;101225.22;5028628;28;20049;-74
2022/08/01 04:46:36;;;;;;;27.88;14.75;;;;;;;20.61;100.00;101226.34;5028230;28;20081;-73
2022/08/01 04:49:06;;;;;;;32.28;15.55;;;;;;;20.64;100.00;101242.28;5028382;28;20055;-71
2022/08/01 04:51:33;;;;;;;27.48;13.82;;;;;;;20.67;100.00;101239.38;5028272;28;20057;-72
2022/08/01 04:54:00;;;;;;;29.42;15.02;;;;;;;20.68;100.00;101240.94;5027698;28;20140;-74
2022/08/01 04:56:27;;;;;;;26.05;13.40;;;;;;;20.66;100.00;101248.25;5027719;28;20068;-72
2022/08/01 05:01:48;;;;;;;29.58;15.82;;;;;;;20.60;100.00;101241.63;5027597;28;20179;-71
2022/08/01 05:04:15;;;;;;;30.27;13.93;;;;;;;20.62;100.00;101248.38;5026509;28;20425;-73
2022/08/01 05:06:41;;;;;;;29.80;15.00;;;;;;;20.58;100.00;101244.88;5027356;28;20053;-72
2022/08/01 05:09:09;;;;;;;31.80;15.27;;;;;;;20.64;100.00;101247.91;5029500;28;20080;-73
2022/08/01 05:11:36;;;;;;;33.90;15.38;;;;;;;20.66;100.00;101242.63;5027281;28;20072;-75
2022/08/01 05:14:02;;;;;;;27.50;14.73;;;;;;;20.67;100.00;101244.19;5028287;28;20140;-72
2022/08/01 05:16:29;;;;;;;28.65;14.63;;;;;;;20.67;100.00;101252.63;5027298;28;20054;-73
2022/08/01 05:18:56;;;;;;;30.40;15.23;;;;;;;20.67;100.00;101250.63;5027671;28;20803;-74
2022/08/01 05:21:23;;;;;;;27.98;14.75;;;;;;;20.72;100.00;101252.06;5027844;28;20514;-72
2022/08/01 05:23:49;;;;;;;32.35;16.48;;;;;;;20.72;100.00;101255.66;5027850;28;20049;-74
2022/08/01 05:26:16;;;;;;;28.48;14.57;;;;;;;20.71;100.00;101261.72;5027947;28;20100;-70
2022/08/01 05:28:42;;;;;;;29.27;15.18;;;;;;;20.73;100.00;101256.44;5028667;28;20482;-74
2022/08/01 05:31:09;;;;;;;30.38;14.40;;;;;;;20.78;100.00;101261.50;5027074;28;20049;-73
2022/08/01 05:33:36;;;;;;;27.50;14.95;;;;;;;20.79;100.00;101263.06;5026367;28;20489;-71
2022/08/01 05:36:02;;;;;;;31.50;15.60;;;;;;;20.81;100.00;101269.81;5027465;28;20092;-73
2022/08/01 05:38:31;;;;;;;34.95;15.30;;;;;;;20.82;100.00;101270.59;5027670;28;20053;-74
2022/08/01 05:40:58;;;;;;;28.40;16.05;;;;;;;20.86;100.00;101274.06;5027825;28;20847;-72
2022/08/01 05:43:25;;;;;;;27.15;14.27;;;;;;;20.86;100.00;101277.69;5027925;28;20628;-72
2022/08/01 05:45:54;;;;;;;27.80;13.07;;;;;;;20.88;100.00;101275.19;5027451;28;20049;-72
2022/08/01 05:48:21;;;;;;;22.95;11.50;;;;;;;20.87;100.00;101275.63;5026943;28;20049;-74
2022/08/01 05:50:47;;;;;;;27.67;12.90;;;;;;;20.91;100.00;101279.13;5026705;28;20056;-73
2022/08/01 05:53:14;;;;;;;23.65;12.05;;;;;;;20.91;100.00;101276.31;5026615;28;20483;-74
2022/08/01 05:55:41;;;;;;;25.52;13.10;;;;;;;20.90;100.00;101274.75;5028231;28;20049;-73
2022/08/01 05:58:08;;;;;;;25.75;13.15;;;;;;;20.89;100.00;101275.97;5027701;28;20045;-73
2022/08/01 06:00:37;;;;;;;23.17;11.65;;;;;;;20.86;100.00;101274.06;5027263;28;20075;-73
2022/08/01 06:03:07;;;;;;;21.60;10.30;;;;;;;20.84;100.00;101282.16;5022386;28;20084;-73
2022/08/01 06:05:33;;;;;;;21.27;11.27;;;;;;;20.80;100.00;101287.13;5026644;28;20068;-75
2022/08/01 06:08:03;;;;;;;23.38;11.75;;;;;;;20.87;100.00;101278.47;5027536;28;20161;-72
2022/08/01 06:10:34;;;;;;;23.52;11.73;;;;;;;20.92;100.00;101283.53;5025607;28;20045;-73
2022/08/01 06:13:02;;;;;;;21.92;9.15;;;;;;;20.87;100.00;101281.25;5019527;28;20183;-71
2022/08/01 06:15:30;;;;;;;23.98;11.65;;;;;;;20.93;100.00;101279.47;5027780;28;20077;-74
2022/08/01 06:18:00;;;;;;;24.52;10.77;;;;;;;20.93;100.00;101282.28;5026483;28;20060;-73
2022/08/01 06:20:26;;;;;;;27.63;12.07;;;;;;;21.03;100.00;101269.91;5024586;28;20072;-74
2022/08/01 06:22:54;;;;;;;23.70;11.68;;;;;;;21.08;100.00;101284.16;5029802;28;20060;-70
2022/08/01 06:25:25;;;;;;;26.05;11.93;;;;;;;21.10;100.00;101272.44;5030668;28;20056;-72
2022/08/01 06:27:51;;;;;;;24.23;12.18;;;;;;;21.23;100.00;101265.50;5030677;28;20049;-72
2022/08/01 06:30:18;;;;;;;22.50;11.93;;;;;;;21.27;100.00;101269.00;5026559;28;20057;-73
2022/08/01 06:32:45;;;;;;;23.50;11.10;;;;;;;21.20;100.00;101272.09;5030616;28;20135;-71
2022/08/01 06:35:11;;;;;;;22.88;12.02;;;;;;;21.20;100.00;101269.28;5029693;28;20049;-73
2022/08/01 06:37:38;;;;;;;25.70;12.32;;;;;;;21.36;100.00;101274.69;5034525;28;20053;-71
2022/08/01 06:40:07;;;;;;;24.30;11.88;;;;;;;21.34;100.00;101282.03;5036584;28;20057;-72
2022/08/01 06:42:39;;;;;;;15.10;6.65;;;;;;;21.27;100.00;101282.28;5031887;28;20057;-75
2022/08/01 06:45:10;;;;;;;22.10;11.73;;;;;;;21.46;100.00;101289.66;5037592;28;20052;-73
2022/08/01 06:47:40;;;;;;;21.27;10.60;;;;;;;21.57;100.00;101287.97;5029486;28;20053;-71
2022/08/01 06:50:08;;;;;;;20.70;10.52;;;;;;;21.58;100.00;101291.59;5029655;28;20161;-73
2022/08/01 06:52:37;;;;;;;20.05;8.50;;;;;;;21.42;100.00;101284.13;5030675;28;20056;-72
2022/08/01 06:55:04;;;;;;;24.58;10.55;;;;;;;21.40;100.00;101288.66;5028502;28;20055;-71
2022/08/01 06:57:31;;;;;;;24.95;10.85;;;;;;;21.38;100.00;101291.13;5029292;28;20068;-72
2022/08/01 06:59:57;;;;;;;22.63;10.82;;;;;;;21.37;100.00;101298.81;5043377;28;20060;-71
2022/08/01 07:02:24;;;;;;;22.98;10.35;;;;;;;21.39;100.00;101295.53;5032736;28;20045;-72
2022/08/01 07:04:50;;;;;;;24.20;10.48;;;;;;;21.46;100.00;101293.22;5030496;28;20057;-71
2022/08/01 07:07:17;;;;;;;19.85;9.38;;;;;;;21.29;100.00;101291.84;5036474;28;20082;-72
2022/08/01 07:09:43;;;;;;;18.33;8.77;;;;;;;21.28;100.00;101290.28;5030696;28;20087;-73
2022/08/01 07:12:10;;;;;;;20.73;10.07;;;;;;;21.41;100.00;101281.78;5027011;28;20045;-72
2022/08/01 07:14:37;;;;;;;22.13;9.65;;;;;;;21.50;100.00;101284.66;5027252;28;20132;-72
2022/08/01 07:17:04;;;;;;;21.40;10.55;;;;;;;21.65;100.00;101280.84;5028865;28;20115;-72
2022/08/01 07:19:30;;;;;;;22.45;10.65;;;;;;;21.87;100.00;101278.03;5029290;28;20136;-70
2022/08/01 07:21:57;;;;;;;24.33;10.82;;;;;;;22.09;100.00;101278.75;5029176;28;20045;-72
2022/08/01 07:24:28;;;;;;;21.27;9.82;;;;;;;22.09;100.00;101287.22;5027734;28;20049;-73
2022/08/01 07:26:57;;;;;;;22.35;10.30;;;;;;;22.29;100.00;101282.00;5028650;28;20416;-71
2022/08/01 07:29:25;;;;;;;20.60;11.23;;;;;;;22.44;100.00;101280.94;5026247;28;20060;-70
2022/08/01 07:31:53;;;;;;;20.33;11.57;;;;;;;22.53;100.00;101283.03;5028716;28;20144;-69
2022/08/01 07:34:20;;;;;;;21.05;12.00;;;;;;;22.49;100.00;101282.41;5028137;28;20120;-71
2022/08/01 07:36:47;;;;;;;20.80;11.65;;;;;;;22.53;100.00;101283.03;5029222;28;20045;-70
2022/08/01 07:39:14;;;;;;;23.02;12.02;;;;;;;22.69;100.00;101283.53;5028272;28;20149;-71
2022/08/01 07:41:40;;;;;;;22.77;12.20;;;;;;;22.84;100.00;101292.19;5027987;28;20096;-70
2022/08/01 07:44:27;;;;;;;21.77;11.82;;;;;;;22.85;100.00;101285.31;5031774;28;20049;-73
2022/08/01 07:46:54;;;;;;;18.60;9.80;;;;;;;22.97;100.00;101289.22;5026369;28;20057;-73
2022/08/01 07:49:21;;;;;;;20.52;11.88;;;;;;;23.10;100.00;101296.31;5028036;28;20506;-73
2022/08/01 07:51:48;;;;;;;21.20;12.20;;;;;;;23.14;100.00;101291.28;5025590;28;20127;-73
2022/08/01 07:54:31;;;;;;;21.50;11.85;;;;;;;23.12;100.00;101287.38;5029227;28;20062;-72
2022/08/01 07:56:59;;;;;;;20.90;10.40;;;;;;;23.07;100.00;101294.44;5028059;28;20052;-72
2022/08/01 07:59:26;;;;;;;18.27;9.93;;;;;;;23.09;100.00;101289.09;5028201;28;20492;-71
2022/08/01 08:01:52;;;;;;;21.10;9.18;;;;;;;23.08;100.00;101293.16;5028439;28;20076;-74
2022/08/01 08:04:19;;;;;;;19.38;9.30;;;;;;;23.16;100.00;101293.66;5028091;28;20498;-75
2022/08/01 08:06:47;;;;;;;15.25;7.88;;;;;;;23.24;100.00;101292.91;5028305;28;20704;-71
2022/08/01 08:09:15;;;;;;;15.32;7.38;;;;;;;23.32;100.00;101299.03;5034058;28;20053;-74
2022/08/01 08:11:45;;;;;;;11.93;6.80;;;;;;;23.49;100.00;101292.56;5027564;28;20057;-73
2022/08/01 08:14:14;;;;;;;14.60;6.47;;;;;;;23.64;100.00;101296.31;5028436;28;20062;-73
2022/08/01 08:16:42;;;;;;;15.43;7.70;;;;;;;23.64;100.00;101301.97;5027800;28;20141;-73
2022/08/01 08:19:11;;;;;;;12.85;6.90;;;;;;;23.61;100.00;101299.28;5028160;28;20053;-72
2022/08/01 08:21:38;;;;;;;15.55;6.93;;;;;;;23.71;100.00;101310.13;5028199;28;20132;-72
2022/08/01 08:24:21;;;;;;;13.50;5.45;;;;;;;23.78;100.00;101304.13;5027648;28;20073;-71
2022/08/01 08:26:55;;;;;;;14.43;5.03;;;;;;;23.94;100.00;101308.69;5023512;28;20045;-73
2022/08/01 08:29:29;;;;;;;9.93;5.10;;;;;;;23.83;100.00;101311.19;5027451;28;20065;-73
2022/08/01 08:31:57;;;;;;;5.35;2.75;;;;;;;23.82;100.00;101316.06;5026826;28;20069;-73
2022/08/01 08:34:25;;;;;;;12.38;2.60;;;;;;;23.87;100.00;101318.25;5025700;28;20053;-75
2022/08/01 08:36:51;;;;;;;5.05;2.20;;;;;;;23.79;100.00;101307.75;5027929;28;20113;-73
2022/08/01 08:39:19;;;;;;;7.97;2.35;;;;;;;23.87;100.00;101312.59;5003701;28;20507;-74
2022/08/01 08:41:47;;;;;;;7.95;3.03;;;;;;;24.09;100.00;101318.84;5006523;28;20049;-75
2022/08/01 08:44:16;;;;;;;6.07;2.70;;;;;;;23.85;100.00;101317.16;5006583;28;20136;-74
2022/08/01 08:46:45;;;;;;;4.85;2.60;;;;;;;23.80;100.00;101324.25;5007664;28;20053;-74
2022/08/01 08:49:16;;;;;;;11.98;2.65;;;;;;;23.75;100.00;101326.91;5009791;28;20096;-78
2022/08/01 08:51:46;;;;;;;4.55;1.73;;;;;;;23.58;100.00;101328.47;5013967;28;20053;-72
2022/08/01 08:54:15;;;;;;;5.45;2.03;;;;;;;23.50;100.00;101333.69;5007358;28;20046;-75
2022/08/01 08:56:43;;;;;;;4.07;1.90;;;;;;;23.63;100.00;101331.50;5006539;28;20045;-73
2022/08/01 08:59:13;;;;;;;3.67;1.90;;;;;;;23.58;100.00;101326.44;5010935;28;20112;-74
2022/08/01 09:01:41;;;;;;;4.43;1.83;;;;;;;23.70;100.00;101334.00;5007955;28;20148;-75
2022/08/01 09:04:07;;;;;;;4.90;2.13;;;;;;;23.59;100.00;101330.84;5007247;28;20045;-75
2022/08/01 09:06:34;;;;;;;5.18;2.30;;;;;;;23.79;100.00;101328.31;5004463;28;20790;-76
2022/08/01 09:09:00;;;;;;;5.78;2.33;;;;;;;23.94;100.00;101332.09;5009338;28;20064;-75
2022/08/01 09:11:28;;;;;;;3.35;2.03;;;;;;;24.13;100.00;101333.59;5005508;28;20152;-80
2022/08/01 09:14:22;;;;;;;4.18;2.35;;;;;;;24.34;100.00;101335.44;5010328;28;20055;-74
2022/08/01 09:17:10;;;;;;;4.00;2.28;;;;;;;24.58;100.00;101336.25;5012809;28;20137;-75
2022/08/01 09:19:41;;;;;;;3.30;2.00;;;;;;;24.75;100.00;101331.81;5002112;28;20494;-74
2022/08/01 09:22:10;;;;;;;3.78;2.42;;;;;;;24.73;100.00;101337.16;5007576;28;20068;-75
2022/08/01 09:24:39;;;;;;;7.65;2.95;;;;;;;24.74;100.00;101333.03;5009839;28;20045;-76
2022/08/01 09:27:20;;;;;;;6.80;3.00;;;;;;;24.72;100.00;101337.63;5007851;28;20041;-76
2022/08/01 09:29:48;;;;;;;9.27;3.45;;;;;;;24.89;100.00;101342.41;5008171;28;20052;-75
2022/08/01 09:32:29;;;;;;;9.43;4.10;;;;;;;25.06;100.00;101340.72;5006259;28;20058;-77
2022/08/01 09:35:25;;;;;;;7.53;3.63;;;;;;;25.11;100.00;101336.44;5001215;28;20144;-75
2022/08/01 09:38:19;;;;;;;5.18;2.88;;;;;;;25.44;100.00;101342.06;5008438;28;20503;-74
2022/08/01 09:40:53;;;;;;;6.15;2.72;;;;;;;25.53;100.00;101344.78;5006546;28;20882;-75
2022/08/01 09:43:23;;;;;;;5.57;3.28;;;;;;;25.48;100.00;101345.47;5008118;28;20167;-76
2022/08/01 09:45:50;;;;;;;5.18;2.58;;;;;;;25.03;100.00;101350.19;5008735;28;20287;-76
2022/08/01 09:48:20;;;;;;;8.55;2.78;;;;;;;24.69;100.00;101362.00;5006911;28;20149;-75
2022/08/01 09:50:54;;;;;;;6.43;3.10;;;;;;;24.57;100.00;101362.97;5006204;28;20154;-75
2022/08/01 09:53:20;;;;;;;7.45;2.65;;;;;;;24.65;100.00;101364.25;5013486;28;20056;-74
2022/08/01 09:56:09;;;;;;;3.85;2.15;;;;;;;24.62;100.00;101365.16;5011475;28;20041;-71
2022/08/01 09:58:52;;;;;;;4.85;1.88;;;;;;;24.63;100.00;101363.13;5012010;28;20185;-71
2022/08/01 10:01:26;;;;;;;3.80;2.25;;;;;;;24.86;100.00;101371.69;5005991;28;20061;-74
2022/08/01 10:04:06;;;;;;;2.38;1.45;;;;;;;24.87;100.00;101378.91;5006068;28;20060;-72
2022/08/01 10:06:36;;;;;;;3.92;1.17;;;;;;;24.93;100.00;101373.34;5007868;28;20132;-76
2022/08/01 10:09:03;;;;;;;3.47;1.27;;;;;;;25.07;100.00;101375.47;5012143;28;20049;-73
2022/08/01 10:11:32;;;;;;;4.30;1.48;;;;;;;25.13;100.00;101367.13;5013439;28;20085;-72
2022/08/01 10:14:05;;;;;;;1.88;1.10;;;;;;;25.20;100.00;101375.25;5012263;28;20147;-76
2022/08/01 10:16:37;;;;;;;1.95;1.40;;;;;;;25.21;100.00;101363.44;5010818;28;20053;-75
2022/08/01 10:19:06;;;;;;;3.92;1.33;;;;;;;25.19;100.00;101377.28;5010961;28;20049;-74
2022/08/01 10:21:41;;;;;;;2.65;1.20;;;;;;;25.20;100.00;101373.19;5011696;28;20124;-75
2022/08/01 10:24:28;;;;;;;2.13;1.13;;;;;;;25.22;100.00;101365.00;5006773;28;20044;-76
2022/08/01 10:27:03;;;;;;;2.20;0.93;;;;;;;25.25;100.00;101366.88;5011676;28;20099;-76
2022/08/01 10:30:04;;;;;;;2.53;1.00;;;;;;;25.34;100.00;101369.66;5012739;28;20136;-75
2022/08/01 10:32:47;;;;;;;2.63;0.90;;;;;;;25.58;100.00;101375.31;5007878;28;20246;-76
2022/08/01 10:35:17;;;;;;;4.35;0.98;;;;;;;25.74;98.34;101369.19;5010905;28;20049;-73
2022/08/01 10:38:04;;;;;;;1.38;0.65;;;;;;;26.00;96.13;101367.38;5011237;28;20053;-75
2022/08/01 10:40:31;;;;;;;1.30;0.90;;;;;;;26.13;94.48;101371.50;5009856;28;20053;-76
2022/08/01 10:42:58;;;;;;;1.42;0.75;;;;;;;26.11;92.31;101378.91;5011052;28;20059;-73
2022/08/01 10:45:26;;;;;;;1.45;1.00;;;;;;;26.16;90.64;101379.03;5011686;28;20155;-75
2022/08/01 10:48:07;;;;;;;2.50;1.60;;;;;;;26.20;91.15;101379.59;5003537;28;20201;-76
2022/08/01 10:50:43;;;;;;;0.70;0.70;;;;;;;26.10;88.86;101383.03;5009116;28;20160;-76
2022/08/01 10:53:17;;;;;;;1.55;0.90;;;;;;;26.08;88.57;101379.91;5010635;28;20134;-73
2022/08/01 10:56:03;;;;;;;4.30;0.80;;;;;;;26.09;87.75;101382.22;5010508;28;20045;-76
2022/08/01 10:58:36;;;;;;;0.90;0.70;;;;;;;26.26;88.85;101379.69;5010720;28;20064;-73
2022/08/01 11:01:15;;;;;;;3.10;0.90;;;;;;;26.30;86.28;101378.25;5011989;28;20045;-74
2022/08/01 11:03:56;;;;;;;1.08;1.00;;;;;;;26.49;88.74;101373.88;5010974;28;20057;-72
2022/08/01 11:06:32;;;;;;;3.22;0.80;;;;;;;26.68;84.48;101383.78;5014273;28;20049;-74
2022/08/01 11:09:11;;;;;;;1.30;0.70;;;;;;;26.82;83.23;101379.34;5019329;28;20192;-75
2022/08/01 11:12:13;;;;;;;1.80;1.23;;;;;;;26.88;79.38;101380.19;5008515;28;20888;-75
2022/08/01 11:15:02;;;;;;;0.45;0.40;;;;;;;27.08;81.71;101383.06;5007490;28;20053;-75
2022/08/01 11:17:39;;;;;;;0.45;0.45;;;;;;;27.16;82.21;101384.22;5009714;28;20120;-72
2022/08/01 11:20:09;;;;;;;1.63;1.00;;;;;;;27.21;80.41;101372.94;5005969;28;20060;-74
2022/08/01 11:23:01;;;;;;;3.42;0.80;;;;;;;27.24;76.94;101374.03;5007059;28;20053;-72
2022/08/01 11:25:38;;;;;;;2.10;1.13;;;;;;;27.35;75.52;101374.97;5004904;28;20041;-73
2022/08/01 11:28:29;;;;;;;1.65;0.95;;;;;;;27.48;76.37;101371.75;5007529;28;20053;-74